Date,TemperatureHighF,TemperatureAvgF,TemperatureLowF,DewpointHighF,DewpointAvgF,DewpointLowF,HumidityHigh,HumidityAvg,HumidityLow,PressureMaxIn,PressureMinIn,WindSpeedMaxMPH,WindSpeedAvgMPH,GustSpeedMaxMPH,PrecipitationSumIn
2013-1-1,79,66,55,63,58,53,98,78,55,30.15,29.97,15,2,15,0.00
2013-1-2,80,70,66,70,66,61,97,88,69,30.01,29.92,14,3,14,0.00
2013-1-3,74,66,60,70,65,58,99,97,84,30.11,29.96,15,3,15,0.33
2013-1-4,63,60,56,61,59,55,99,98,93,30.22,30.08,12,5,12,0.11
2013-1-5,76,65,57,64,59,53,98,84,66,30.24,30.11,11,3,11,0.00
2013-1-6,80,68,62,73,66,61,99,91,75,30.14,30.00,12,3,12,0.05
2013-1-7,67,64,61,67,61,57,99,93,80,30.15,30.04,12,4,12,0.02
2013-1-8,82,71,61,73,66,61,99,86,62,30.16,30.05,8,2,8,0.00
2013-1-9,72,71,70,69,68,68,93,91,89,30.12,30.10,2,1,2,0.00
2013-1-17,72,59,55,70,51,45,99,73,67,30.09,29.96,22,11,22,0.07
2013-1-18,64,53,43,56,44,35,77,72,61,30.25,30.09,21,8,21,0.00
2013-1-19,76,67,56,62,57,50,83,71,60,30.22,30.06,13,5,13,0.00
2013-1-20,78,71,62,64,62,57,92,72,63,30.11,29.97,9,4,9,0.00
2013-1-21,72,63,61,60,54,53,77,74,68,30.04,29.97,10,5,13,0.00
2013-1-22,68,61,53,53,40,25,76,51,25,30.23,30.01,17,5,17,0.00
2013-1-23,72,59,50,43,36,29,67,46,24,30.32,30.20,12,4,12,0.00
2013-1-24,75,67,52,53,48,40,87,54,36,30.29,30.19,17,6,17,0.00
2013-1-25,77,67,55,58,53,45,92,64,41,30.26,30.12,8,3,8,0.00
2013-1-26,74,69,67,57,56,54,69,65,52,30.14,30.12,11,6,11,0.00
2013-1-27,84,76,70,58,55,52,60,51,38,30.21,30.14,9,3,9,0.00
2013-1-28,85,82,81,64,62,61,54,52,50,30.17,30.13,8,3,8,0.00
2013-1-29,86,81,70,72,68,65,93,67,51,30.16,30.03,9,5,12,0.00
2013-1-30,80,78,73,67,66,66,80,70,66,29.87,29.85,15,11,18,0.00
2013-1-31,60,59,53,48,43,33,67,57,46,30.17,30.07,17,11,18,0.12
2013-2-1,68,56,48,43,35,16,72,49,17,30.31,30.19,16,4,16,0.00
2013-2-2,78,59,48,46,41,29,77,56,23,30.25,30.09,11,4,13,0.00
2013-2-3,74,57,45,53,47,41,90,71,45,30.15,30.03,15,4,15,0.00
2013-2-5,78,65,61,56,52,49,81,65,40,30.00,29.94,12,1,13,0.00
2013-2-6,83,69,61,64,59,56,89,73,45,30.04,29.95,11,2,11,0.00
2013-2-7,83,71,64,68,64,60,94,81,52,29.99,29.75,27,6,27,0.11
2013-2-8,80,69,60,68,62,56,96,81,54,30.03,29.83,16,6,16,0.00
2013-2-9,81,65,57,57,55,50,95,75,40,30.14,30.01,11,4,11,0.00
2013-2-10,88,71,63,64,60,56,87,70,43,30.18,30.06,10,3,10,0.00
2013-2-11,86,72,64,68,64,60,90,79,56,30.14,30.01,17,5,17,0.00
2013-2-12,85,73,66,74,69,64,97,88,69,30.03,29.88,23,5,25,0.00
2013-2-13,72,72,71,71,70,69,96,96,95,29.89,29.86,15,6,15,0.00
2013-2-14,63,62,62,62,61,60,97,96,94,29.99,29.89,11,4,11,0.39
2013-2-15,71,63,57,60,57,54,99,85,61,30.01,29.90,8,3,9,0.04
2013-2-16,70,60,53,55,43,31,90,56,45,30.08,29.91,26,12,30,0.00
2013-2-17,57,48,42,35,22,8,65,40,19,30.29,30.07,23,8,23,0.00
2013-2-18,76,47,39,44,33,30,76,62,34,30.30,30.16,11,2,11,0.00
2013-2-19,77,68,64,59,58,57,81,71,55,30.12,30.05,9,5,14,0.00
2013-2-20,78,69,64,66,64,60,99,86,60,30.06,29.96,9,3,11,0.00
2013-2-26,75,73,70,73,70,64,96,88,74,29.76,29.70,22,7,22,0.43
2013-2-27,74,66,60,61,56,52,87,71,54,29.93,29.85,13,5,13,0.00
2013-2-28,73,62,56,55,53,50,88,74,46,29.95,29.86,15,3,15,0.00
2013-3-1,64,57,56,45,39,36,56,53,48,29.97,29.89,16,6,17,0.00
2013-3-2,59,54,50,42,39,37,71,59,49,30.03,29.92,25,6,25,0.02
2013-3-3,54,51,49,38,36,33,60,59,51,30.11,29.97,17,6,19,0.00
2013-3-4,69,55,45,40,34,29,64,47,32,30.18,30.07,14,4,14,0.00
2013-3-5,69,67,48,57,55,44,86,67,64,30.11,30.08,12,8,12,0.00
2013-3-9,66,56,54,48,47,45,79,75,49,30.11,30.09,5,0,8,0.00
2013-3-10,83,68,67,57,56,54,71,66,41,30.06,29.98,7,1,7,0.00
2013-3-11,76,66,61,64,59,55,87,78,65,30.04,29.82,16,3,16,0.00
2013-3-12,71,65,58,68,60,48,99,83,51,29.99,29.78,17,6,19,0.44
2013-3-13,58,58,57,53,52,51,83,82,81,30.00,29.98,7,3,7,0.00
2013-3-17,77,70,58,61,59,56,95,70,54,30.08,29.93,15,3,15,0.00
2013-3-18,76,69,62,69,64,58,93,84,74,29.97,29.82,15,4,17,0.00
2013-3-19,86,71,64,69,64,60,98,81,46,29.96,29.82,16,2,16,0.00
2013-3-20,75,67,61,67,63,59,95,87,69,29.91,29.74,20,3,20,0.15
2013-3-21,68,60,51,60,40,20,97,57,21,29.95,29.81,15,5,15,0.01
2013-3-22,77,63,49,68,53,41,94,72,46,29.94,29.82,11,2,11,0.06
2013-3-23,82,72,67,75,70,65,99,93,79,29.91,29.73,18,5,18,0.01
2013-3-24,79,74,70,75,72,68,99,95,86,29.76,29.58,23,8,23,0.00
2013-3-25,71,63,55,68,47,30,95,61,32,30.00,29.68,131,9,131,0.01
2013-3-26,59,54,49,45,36,29,67,51,40,30.20,29.99,28,9,28,0.00
2013-3-27,59,51,45,39,34,28,72,54,41,30.28,30.16,17,6,17,0.00
2013-3-28,71,56,45,45,34,8,88,53,13,30.25,30.14,11,3,11,0.00
2013-3-29,78,62,49,51,40,21,89,54,16,30.27,30.13,11,2,11,0.00
2013-3-30,78,64,53,56,50,46,88,65,38,30.19,30.07,17,3,17,0.00
2013-3-31,78,68,59,63,58,53,86,71,46,30.11,29.94,17,5,17,0.00
2013-4-1,82,73,68,71,66,62,91,79,60,29.98,29.90,19,6,19,0.00
2013-4-2,84,72,64,67,63,59,95,78,50,30.04,29.94,11,2,11,0.00
2013-4-3,86,74,65,72,66,61,95,80,53,30.01,29.86,16,4,16,0.04
2013-4-4,73,70,66,71,69,66,99,95,86,29.99,29.78,20,4,20,0.65
2013-4-5,74,68,62,69,62,54,98,83,56,29.94,29.74,20,8,20,0.05
2013-4-6,78,65,57,61,56,52,87,72,46,30.05,29.93,14,6,14,0.00
2013-4-7,84,72,63,64,59,54,92,69,40,30.09,29.98,10,2,10,0.00
2013-4-8,88,76,67,65,60,51,84,63,33,30.07,29.96,8,2,8,0.00
2013-4-9,88,76,67,70,65,60,92,70,49,30.09,29.98,11,2,11,0.00
2013-4-10,89,77,68,70,65,62,89,69,44,30.05,29.88,11,2,11,0.01
2013-4-11,89,79,72,75,71,67,96,80,56,29.92,29.73,21,6,21,0.04
2013-4-12,80,77,73,76,73,69,94,89,79,29.86,29.71,24,6,24,0.00
2013-4-13,88,78,70,72,67,64,94,73,49,29.92,29.81,11,3,11,0.00
2013-4-14,85,76,68,74,69,61,91,79,68,29.94,29.78,26,6,26,0.00
2013-4-15,91,79,69,69,66,61,83,66,48,30.00,29.86,11,2,11,0.00
2013-4-16,95,81,71,74,69,65,93,70,44,30.06,29.95,10,2,10,0.00
2013-4-17,89,80,70,70,65,58,87,64,39,30.07,29.93,11,3,11,0.00
2013-4-18,92,80,72,73,68,65,86,69,47,29.98,29.86,11,3,11,0.02
2013-4-19,88,80,74,75,72,67,93,79,58,29.94,29.85,22,7,22,0.00
2013-4-20,78,71,64,74,65,59,93,82,68,30.08,29.89,17,6,17,0.09
2013-4-21,83,71,62,70,65,58,93,83,62,30.08,29.94,13,4,14,0.07
2013-4-22,81,73,69,71,68,64,99,86,65,30.01,29.89,13,4,13,0.01
2013-4-23,88,76,66,67,64,59,91,70,43,30.04,29.93,12,4,12,0.00
2013-4-24,87,75,67,66,62,48,88,69,30,30.08,29.99,14,3,14,0.00
2013-4-25,85,76,68,68,66,63,89,71,54,30.14,30.03,13,3,13,0.00
2013-4-26,90,78,68,69,65,61,87,68,42,30.18,30.07,11,3,11,0.00
2013-4-27,89,79,72,70,66,59,89,68,40,30.15,30.00,14,3,14,0.00
2013-4-28,91,78,71,67,65,59,81,65,39,30.06,29.88,8,3,8,0.01
2013-4-29,85,77,70,71,67,64,86,73,57,29.95,29.83,49,4,49,0.30
2013-4-30,89,78,70,73,70,64,97,79,45,29.93,29.82,11,2,11,0.69
2013-5-1,76,73,68,74,70,68,99,93,87,29.93,29.83,8,2,8,0.92
2013-5-2,80,72,66,74,70,66,99,92,73,29.90,29.73,11,2,11,0.50
2013-5-3,82,75,69,73,69,66,99,84,62,29.76,29.64,15,3,15,0.28
2013-5-4,80,73,68,71,67,66,95,82,68,29.75,29.61,17,4,17,0.00
2013-5-5,78,70,64,69,56,46,95,64,40,29.88,29.73,21,7,21,0.00
2013-5-6,76,70,64,63,57,53,78,64,50,29.95,29.83,17,5,17,0.00
2013-5-7,79,69,60,61,58,55,86,69,51,30.00,29.90,14,3,14,0.00
2013-5-8,80,71,62,63,60,57,90,71,49,30.07,29.96,12,3,12,0.00
2013-5-9,86,74,64,67,63,57,93,71,42,30.09,30.00,11,2,11,0.00
2013-5-10,91,78,68,74,68,63,95,74,46,30.08,29.92,14,3,14,0.00
2013-5-11,90,79,75,76,73,68,94,82,56,29.99,29.92,14,4,14,0.00
2013-5-12,86,78,74,78,71,64,97,79,60,29.98,29.87,15,3,15,0.00
2013-5-13,84,75,68,70,59,39,90,63,27,30.07,29.94,19,4,19,0.00
2013-5-14,84,74,64,59,47,35,66,43,22,30.15,30.04,14,4,14,0.00
2013-5-15,88,76,68,61,58,49,75,56,32,30.15,29.99,14,3,14,0.00
2013-5-16,89,78,70,68,62,55,78,62,35,30.06,29.92,10,3,10,0.00
2013-5-17,87,79,72,68,65,60,79,66,47,30.03,29.95,11,3,11,0.00
2013-5-18,89,80,74,75,67,57,90,68,37,30.04,29.94,11,3,11,0.00
2013-5-19,90,81,72,73,67,62,92,66,43,30.02,29.90,11,3,11,0.00
2013-5-20,93,81,76,73,70,65,82,70,47,30.00,29.88,17,2,17,0.00
2013-5-21,90,78,73,73,70,66,91,79,48,29.96,29.84,19,2,19,0.56
2013-5-22,87,79,73,75,71,66,91,79,53,29.90,29.81,13,2,13,0.00
2013-5-23,90,80,73,75,72,68,94,76,58,29.94,29.83,13,3,13,0.00
2013-5-24,93,82,74,76,69,60,94,70,40,30.01,29.90,17,4,17,0.00
2013-5-25,95,83,76,71,65,57,80,58,34,30.10,29.98,11,3,11,0.00
2013-5-26,88,79,72,64,58,47,73,53,28,30.14,30.03,11,3,11,0.00
2013-5-27,91,80,71,67,63,58,74,59,38,30.11,29.96,11,3,11,0.00
2013-5-28,92,80,74,74,71,67,86,75,51,30.07,29.94,14,3,14,0.01
2013-5-29,91,81,75,75,72,68,91,75,54,30.02,29.94,14,4,14,0.00
2013-5-30,91,82,77,74,72,69,89,75,58,30.01,29.91,14,4,14,0.00
2013-5-31,88,80,75,78,72,69,91,79,62,30.00,29.92,11,3,11,0.52
2013-6-1,89,80,76,78,75,71,98,85,64,29.97,29.87,11,2,11,1.72
2013-6-2,91,81,74,79,76,73,99,86,64,29.93,29.81,14,3,14,0.00
2013-6-3,88,81,78,78,75,72,95,84,65,29.93,29.82,15,4,15,0.00
2013-6-4,85,81,76,77,74,72,90,81,69,29.94,29.86,15,3,15,0.00
2013-6-5,86,80,75,76,74,70,95,83,71,29.93,29.81,10,2,10,0.14
2013-6-6,80,77,74,78,75,73,99,95,83,29.81,29.57,34,8,34,2.74
2013-6-7,87,80,73,77,74,72,99,84,66,29.89,29.71,14,4,14,0.00
2013-6-8,90,80,74,80,75,73,99,86,70,30.03,29.88,11,3,11,1.83
2013-6-9,91,81,74,81,76,72,99,87,64,30.02,29.93,19,2,19,0.00
2013-6-10,91,83,78,80,76,70,96,79,59,30.02,29.93,11,3,11,0.00
2013-6-11,90,82,78,79,76,72,95,82,61,30.02,29.94,12,2,12,0.09
2013-6-12,90,83,76,79,74,72,92,75,57,30.01,29.93,13,2,13,0.05
2013-6-13,92,84,77,78,74,69,95,75,55,29.97,29.83,13,3,13,0.00
2013-6-14,90,83,79,76,74,71,83,75,58,29.89,29.80,13,4,13,0.00
2013-6-15,91,84,79,78,76,73,90,79,66,29.98,29.84,11,3,11,0.00
2013-6-16,93,85,80,80,77,74,91,79,60,30.01,29.93,11,3,11,0.00
2013-6-17,93,85,79,78,75,71,91,73,53,30.00,29.91,12,2,12,0.00
2013-6-18,93,85,78,79,75,70,91,73,51,29.98,29.89,11,3,11,0.00
2013-6-19,95,86,80,80,76,73,92,76,59,29.97,29.89,11,2,11,0.01
2013-6-20,94,84,77,78,75,70,90,75,54,30.04,29.93,15,2,15,0.28
2013-6-21,93,82,77,76,73,69,88,76,52,30.04,29.96,13,2,13,0.05
2013-6-22,116,82,74,94,73,69,94,78,50,30.05,29.96,17,2,17,1.04
2013-6-23,94,82,76,80,75,69,98,83,49,30.06,29.98,13,2,13,0.00
2013-6-24,95,85,78,79,75,69,90,75,47,30.12,29.97,11,3,11,0.00
2013-6-25,95,84,74,77,74,66,96,74,44,30.07,29.93,39,3,39,1.20
2013-6-26,93,82,76,79,76,74,99,86,60,30.00,29.92,11,2,11,1.06
2013-6-27,91,82,75,79,76,71,99,83,61,29.98,29.86,11,2,11,0.01
2013-6-28,89,83,77,80,76,74,99,81,65,29.90,29.77,14,3,14,0.52
2013-6-29,83,80,76,80,76,72,98,90,75,29.82,29.72,14,3,14,0.92
2013-6-30,88,81,76,80,77,74,96,88,74,29.81,29.72,17,4,17,0.50
2013-7-1,79,76,73,78,76,72,99,99,96,29.91,29.76,16,4,16,2.19
2013-7-2,88,79,74,81,76,73,99,90,68,30.01,29.87,14,3,14,0.93
2013-7-3,90,79,75,80,76,73,99,92,67,30.04,29.95,14,2,14,1.37
2013-7-4,89,79,75,80,76,73,99,92,65,30.08,29.97,10,2,10,0.26
2013-7-5,89,79,74,80,77,73,99,94,72,30.06,29.98,17,2,17,0.53
2013-7-6,94,82,76,80,77,72,99,87,52,30.04,29.94,9,2,9,0.00
2013-7-7,94,84,79,79,76,74,95,79,54,30.06,29.94,11,2,11,0.11
2013-7-8,95,83,78,79,76,72,96,83,49,30.09,29.99,8,2,9,0.15
2013-7-9,94,83,76,79,75,70,99,79,48,30.09,29.96,7,1,7,0.01
2013-7-10,89,83,77,77,74,69,95,77,55,30.01,29.88,11,2,11,0.07
2013-7-11,89,81,77,80,76,74,98,87,68,29.96,29.84,11,2,11,0.12
2013-7-12,90,82,77,80,76,73,97,85,61,29.88,29.81,10,1,10,0.04
2013-7-13,87,80,77,79,76,73,96,88,71,29.91,29.82,10,2,10,0.38
2013-7-14,88,80,75,81,76,73,97,89,72,30.00,29.87,11,2,13,0.00
2013-7-15,92,82,75,76,74,71,92,79,52,30.04,29.92,10,2,10,0.00
2013-7-16,92,80,76,78,74,72,92,83,54,30.08,29.99,14,3,14,0.27
2013-7-17,91,79,54,79,75,71,98,89,61,30.09,29.98,14,2,14,0.51
2013-7-18,89,79,75,79,75,73,99,91,67,30.04,29.96,9,2,9,0.31
2013-7-19,88,78,74,81,76,74,99,94,75,30.05,29.96,12,2,12,0.26
2013-7-20,90,80,75,81,76,73,99,89,66,30.04,29.94,17,1,17,0.00
2013-7-21,92,83,77,82,78,74,99,85,68,30.05,29.96,12,3,12,0.00
2013-7-22,92,84,80,81,78,75,96,82,66,30.06,29.98,14,3,14,0.00
2013-7-23,89,83,78,78,76,74,94,80,65,30.03,29.89,14,3,14,0.01
2013-7-24,90,84,80,78,76,74,92,79,66,29.94,29.83,16,5,16,0.13
2013-7-25,89,83,79,79,77,75,93,83,68,29.93,29.80,16,5,16,0.09
2013-7-26,91,83,77,83,78,74,99,86,62,29.94,29.87,20,2,20,0.22
2013-7-27,95,85,79,80,76,70,98,77,51,29.93,29.84,14,3,14,0.00
2013-7-28,90,83,78,78,75,71,93,79,62,29.98,29.86,14,1,14,0.00
2013-7-29,94,84,76,78,74,68,94,75,47,30.07,29.94,9,2,9,0.02
2013-7-30,99,85,78,79,75,71,95,75,48,30.10,29.98,15,2,15,0.13
2013-7-31,95,84,78,81,77,71,99,82,52,30.06,29.92,11,2,11,0.01
2013-8-1,92,84,80,78,76,71,89,77,54,29.98,29.87,12,2,12,0.00
2013-8-2,90,83,76,81,76,72,94,82,68,30.00,29.86,19,2,20,0.98
2013-8-3,93,84,77,79,76,74,97,79,59,30.02,29.92,15,3,15,0.00
2013-8-4,93,86,80,80,77,73,92,77,64,30.02,29.92,14,3,14,0.00
2013-8-5,92,86,81,80,78,75,90,77,62,29.96,29.86,12,3,15,0.00
2013-8-6,92,83,79,81,78,72,93,84,66,29.91,29.81,11,2,11,0.27
2013-8-7,94,83,76,81,77,72,98,84,55,29.89,29.81,11,2,11,0.65
2013-8-8,94,82,76,81,78,72,99,88,58,29.94,29.84,8,2,8,0.60
2013-8-9,93,81,76,80,77,71,98,89,54,29.98,29.88,9,2,9,0.38
2013-8-10,95,84,76,81,77,74,99,83,56,30.04,29.95,7,2,7,0.02
2013-8-11,97,86,80,80,77,73,91,75,50,30.08,29.96,11,2,11,0.00
2013-8-12,94,86,79,80,78,75,94,79,57,30.06,29.92,8,2,8,0.08
2013-8-13,95,86,79,79,76,69,92,76,49,29.99,29.85,10,2,11,0.00
2013-8-14,93,86,79,79,77,74,91,75,59,29.94,29.84,13,3,13,0.00
2013-8-15,92,84,80,79,76,74,88,79,66,29.97,29.87,14,3,18,0.00
2013-8-16,92,85,80,77,76,72,82,74,58,29.97,29.88,17,3,17,0.00
2013-8-17,93,83,76,82,77,72,99,84,61,30.01,29.90,14,2,14,0.51
2013-8-18,93,82,77,82,78,74,99,89,64,30.03,29.93,11,2,11,0.35
2013-8-19,94,82,76,82,77,73,99,89,53,30.00,29.87,13,2,13,0.44
2013-8-20,92,81,75,82,77,74,99,89,63,30.01,29.91,12,2,12,0.09
2013-8-21,95,83,78,81,77,71,98,86,55,30.03,29.90,12,2,12,0.17
2013-8-22,92,81,76,81,78,72,99,90,60,30.02,29.88,17,2,17,0.56
2013-8-23,92,82,78,83,77,73,99,87,60,29.95,29.88,14,2,14,0.05
2013-8-24,93,83,78,81,76,73,96,83,53,30.05,29.92,17,2,17,0.00
2013-8-25,91,82,78,78,76,73,95,83,63,30.09,29.99,10,2,10,0.00
2013-8-26,93,82,77,79,76,71,96,84,54,30.07,29.93,13,2,13,0.17
2013-8-27,92,82,76,79,75,72,98,83,53,29.99,29.89,27,2,27,0.00
2013-8-28,91,82,75,77,74,70,94,78,54,29.99,29.90,24,2,24,0.00
2013-8-29,119,83,76,76,73,68,91,74,55,29.97,29.86,13,3,13,0.00
2013-8-30,90,82,77,79,76,71,91,83,64,29.93,29.82,11,2,11,0.51
2013-8-31,91,82,76,79,75,72,98,82,57,29.92,29.81,11,2,11,0.28
2013-9-1,92,84,78,80,76,72,96,78,57,29.92,29.83,9,2,9,0.00
2013-9-2,90,83,77,81,76,73,98,81,61,29.95,29.86,11,2,11,0.52
2013-9-3,92,82,77,81,77,75,97,85,64,29.96,29.85,10,1,10,0.41
2013-9-4,94,82,77,80,77,71,98,86,57,30.02,29.89,24,2,24,0.14
2013-9-5,94,82,77,82,77,73,98,86,54,30.03,29.91,13,1,13,0.31
2013-9-6,92,81,75,82,77,72,99,89,59,29.99,29.86,17,2,17,0.43
2013-9-7,92,80,73,78,74,70,98,85,57,29.95,29.83,13,2,13,0.01
2013-9-8,90,82,74,77,74,69,98,79,52,29.90,29.78,11,2,11,0.00
2013-9-9,93,84,77,77,73,68,91,72,49,29.96,29.85,10,2,10,0.00
2013-9-10,93,84,78,77,73,65,92,71,47,30.01,29.91,14,3,14,0.00
2013-9-11,94,84,78,77,73,68,91,72,48,30.00,29.90,11,3,11,0.00
2013-9-12,90,82,77,78,75,72,93,82,62,29.95,29.80,10,2,10,0.04
2013-9-13,88,80,74,79,75,73,97,87,73,29.84,29.73,11,1,11,1.63
2013-9-14,90,82,75,80,76,74,99,84,62,29.91,29.76,10,1,11,0.01
2013-9-15,94,81,74,80,76,71,96,86,56,30.01,29.88,13,2,13,0.17
2013-9-16,93,80,75,78,76,73,99,88,56,30.00,29.89,16,2,16,0.11
2013-9-17,92,80,76,79,75,73,98,86,58,29.98,29.86,8,2,8,0.20
2013-9-18,90,80,76,78,76,73,95,87,63,29.96,29.88,12,2,12,0.08
2013-9-19,93,80,76,79,75,73,97,86,60,29.98,29.88,14,2,14,0.72
2013-9-20,90,81,74,76,73,69,99,80,54,29.96,29.81,7,2,7,0.01
2013-9-21,89,82,76,75,72,69,87,73,56,29.87,29.70,10,2,10,0.00
2013-9-22,87,82,80,79,77,75,93,85,74,29.78,29.68,17,3,17,0.15
2013-9-23,82,79,77,81,78,76,99,98,93,29.87,29.74,18,2,18,0.94
2013-9-24,82,78,75,80,77,74,99,98,96,29.89,29.76,12,3,12,1.09
2013-9-25,81,76,71,81,75,70,99,98,94,29.86,29.71,23,4,23,2.23
2013-9-26,88,82,75,82,78,71,99,88,67,29.81,29.71,15,4,15,0.01
2013-9-27,86,78,71,75,72,67,97,82,61,29.90,29.79,14,4,14,0.00
2013-9-28,88,79,73,77,72,70,96,82,58,29.94,29.84,14,3,14,0.27
2013-9-29,88,79,72,74,71,67,96,78,54,29.92,29.82,10,2,10,0.00
2013-9-30,89,80,75,76,73,68,94,79,54,29.93,29.83,10,2,10,0.00
2013-10-1,92,82,76,77,73,69,96,77,51,29.98,29.88,9,2,9,0.00
2013-10-2,90,82,73,76,73,70,92,76,56,29.98,29.88,10,2,10,0.00
2013-10-3,90,82,76,76,72,68,90,74,52,30.00,29.89,7,2,7,0.00
2013-10-4,89,82,78,76,74,70,91,79,57,30.02,29.92,8,2,8,0.00
2013-10-5,94,82,77,75,73,69,88,75,52,29.99,29.85,10,2,10,0.00
2013-10-6,90,82,76,77,74,67,95,79,53,29.92,29.78,9,2,9,0.00
2013-10-7,88,80,76,81,77,74,99,91,79,29.81,29.67,21,4,21,0.54
2013-10-8,88,81,77,80,76,72,94,84,69,29.88,29.72,13,4,13,0.02
2013-10-9,80,76,71,72,70,67,88,83,70,29.98,29.86,10,4,11,0.00
2013-10-10,86,76,68,71,68,66,96,79,57,29.99,29.89,8,3,8,0.00
2013-10-11,86,77,69,71,68,62,95,75,56,29.98,29.87,10,2,10,0.00
2013-10-12,88,76,68,70,64,59,95,70,45,29.98,29.90,13,2,13,0.00
2013-10-13,87,76,67,73,64,60,96,71,44,30.02,29.91,9,1,9,0.00
2013-10-14,86,76,69,72,66,62,96,73,48,29.98,29.86,13,4,13,0.00
2013-10-15,86,74,66,76,70,64,96,86,68,29.94,29.83,11,4,11,0.00
2013-10-16,83,76,70,74,70,66,98,84,64,29.90,29.82,10,2,10,0.00
2013-10-17,90,78,71,75,71,69,98,80,56,29.91,29.82,8,2,8,0.00
2013-10-18,89,80,72,79,73,69,97,82,59,29.91,29.82,11,1,11,0.00
2013-10-19,88,80,75,78,74,70,95,83,60,29.88,29.80,10,2,10,0.00
2013-10-20,88,80,75,79,75,71,99,86,64,29.89,29.79,9,1,9,0.04
2013-10-21,91,80,76,80,74,71,97,83,57,29.93,29.84,8,1,9,0.00
2013-10-22,86,78,73,78,75,72,99,90,72,29.88,29.75,15,2,15,0.45
2013-10-23,79,74,71,77,64,51,99,74,44,29.95,29.73,18,5,18,0.01
2013-10-24,72,68,64,59,50,44,74,54,45,30.10,29.93,14,4,14,0.00
2013-10-25,80,69,60,62,56,48,96,67,38,30.18,30.07,12,3,12,0.00
2013-10-26,79,69,62,60,57,42,84,68,31,30.15,30.02,12,2,12,0.00
2013-10-27,79,68,59,61,57,54,95,72,46,30.06,29.98,9,2,9,0.00
2013-10-28,83,70,60,64,57,48,92,67,33,30.12,30.02,11,2,11,0.00
2013-10-29,85,75,64,69,65,61,97,74,48,30.16,30.04,10,2,10,0.00
2013-10-30,86,76,68,71,67,65,94,75,53,30.16,30.01,8,2,8,0.00
2013-10-31,86,76,68,72,68,65,97,78,52,30.06,29.89,10,1,11,0.00
2013-11-1,85,78,74,77,74,71,94,87,72,29.93,29.81,15,4,15,0.00
2013-11-2,78,72,65,77,70,64,99,93,77,29.93,29.74,14,3,14,0.86
2013-11-3,78,67,60,64,52,38,98,65,29,30.05,29.90,12,4,13,0.01
2013-11-4,79,70,60,67,58,50,82,68,51,30.08,30.00,17,5,17,0.00
2013-11-5,84,74,68,71,68,62,94,80,65,30.08,29.97,14,4,14,0.00
2013-11-6,88,77,72,70,68,64,89,75,53,30.04,29.93,11,2,11,0.00
2013-11-7,82,74,70,70,68,64,94,82,64,29.99,29.89,11,2,11,0.00
2013-11-8,80,72,67,70,64,60,98,78,56,30.05,29.92,14,5,14,0.00
2013-11-9,85,74,66,69,64,61,84,74,60,30.09,30.00,11,3,11,0.00
2013-11-10,82,74,68,69,66,63,87,76,59,30.10,29.99,11,2,11,0.00
2013-11-11,84,73,67,70,66,64,93,81,60,30.09,29.99,8,2,8,0.00
2013-11-12,78,71,67,71,67,54,98,87,59,30.05,29.94,16,2,16,0.00
2013-11-13,70,62,55,54,50,44,76,65,56,30.24,30.01,21,8,21,0.00
2013-11-14,79,65,53,59,54,48,86,71,51,30.23,30.09,12,2,12,0.00
2013-11-15,72,69,65,67,63,59,92,83,74,30.11,29.97,8,1,9,0.02
2013-11-16,76,72,68,72,70,67,97,92,87,30.05,29.94,6,1,6,0.02
2013-11-17,85,75,70,74,69,66,94,83,63,30.01,29.91,9,1,9,0.00
2013-11-18,83,76,70,75,71,68,98,87,71,29.96,29.86,9,1,9,0.00
2013-11-19,80,75,67,74,70,62,99,88,71,29.91,29.80,8,2,8,0.01
2013-11-20,82,73,67,73,68,63,91,86,71,30.02,29.89,11,2,11,0.00
2013-11-21,85,77,72,74,72,70,97,85,66,30.11,30.00,11,2,11,0.00
2013-11-22,83,76,72,74,70,66,96,82,63,30.11,30.01,9,1,9,0.00
2013-11-23,83,73,67,70,67,63,98,82,58,30.05,29.94,14,2,14,0.00
2013-11-24,70,67,59,68,61,51,97,83,71,30.16,29.96,20,5,20,0.00
2013-11-25,76,68,60,64,59,53,83,73,61,30.15,29.97,11,1,11,0.00
2013-11-26,82,74,69,75,71,64,99,92,78,29.97,29.68,20,4,20,0.27
2013-11-27,73,64,48,72,57,40,99,79,65,30.15,29.66,24,7,24,0.04
2013-11-28,62,51,41,50,40,31,83,67,47,30.29,30.14,15,1,15,0.00
2013-11-29,72,62,53,57,53,49,92,76,52,30.30,30.18,12,1,12,0.00
2013-11-30,76,66,56,64,59,51,96,81,64,30.25,30.09,11,1,11,0.00
2013-12-1,74,65,61,67,62,60,99,90,72,30.12,29.91,9,1,10,0.00
2013-12-2,70,65,60,64,59,54,99,82,59,29.92,29.77,9,0,9,0.00
2013-12-3,78,69,60,68,64,58,97,85,66,29.91,29.81,6,0,6,0.00
2013-12-4,83,73,66,74,69,65,99,87,64,30.00,29.88,8,0,8,0.00
2013-12-5,83,73,66,72,68,66,99,85,61,30.10,29.99,6,0,6,0.00
2013-12-6,84,74,67,76,70,66,99,88,69,30.11,30.00,14,1,14,0.00
2013-12-7,83,74,68,73,68,64,99,85,57,30.17,30.06,4,0,4,0.00
2013-12-8,85,74,68,74,69,66,99,85,59,30.15,30.01,4,0,4,0.00
2013-12-9,83,74,68,75,70,68,99,87,69,30.11,30.00,16,0,16,0.00
2013-12-10,82,74,67,74,70,66,99,89,74,30.10,30.01,11,1,11,0.00
2013-12-11,81,72,65,71,66,60,96,82,64,30.17,30.07,11,2,11,0.00
2013-12-12,71,66,58,67,52,31,99,69,31,30.25,30.12,16,3,16,0.00
2013-12-13,75,64,55,60,52,38,82,68,46,30.22,30.02,8,0,8,0.00
2013-12-14,83,73,66,73,68,60,94,85,69,30.04,29.86,14,1,16,0.00
2013-12-15,75,69,60,74,64,56,99,87,69,30.07,29.81,19,5,19,0.07
2013-12-16,66,57,51,56,48,42,88,72,47,30.17,30.04,13,4,13,0.00
2013-12-17,70,58,50,51,47,43,86,67,48,30.19,30.08,11,3,11,0.00
2013-12-18,72,59,51,55,48,39,97,71,36,30.23,30.13,15,2,15,0.00
2013-12-19,75,62,51,60,52,46,85,71,48,30.21,30.08,7,0,7,0.00
2013-12-20,83,71,62,69,64,57,90,79,61,30.12,30.00,4,0,4,0.00
2013-12-21,85,75,68,73,69,65,97,83,65,30.05,29.93,8,0,8,0.00
2013-12-22,86,75,70,76,71,69,99,87,69,30.06,29.98,17,2,17,0.00
2013-12-23,84,75,70,76,72,68,99,92,77,30.09,30.01,15,3,15,0.00
2013-12-24,74,64,55,74,51,30,98,68,28,30.20,30.04,19,6,19,0.00
2013-12-25,75,62,50,59,50,37,76,65,54,30.19,30.04,8,0,8,0.00
2013-12-26,76,68,61,63,60,56,90,77,60,30.14,30.01,8,0,8,0.00
2013-12-27,72,66,62,68,63,59,95,89,80,30.19,30.05,12,1,12,0.04
2013-12-28,78,71,66,71,68,64,99,91,78,30.14,29.91,11,0,11,0.00
2013-12-29,75,70,63,74,69,62,99,97,91,29.95,29.80,22,2,22,0.85
2013-12-30,67,63,61,64,61,57,99,94,83,30.13,29.93,13,1,13,0.00
2013-12-31,69,64,60,57,53,50,86,69,55,30.23,30.09,12,2,13,0.00
2014-1-1,64,62,60,64,60,51,99,91,65,30.18,29.98,11,2,11,0.13
2014-1-2,78,69,60,75,68,56,99,97,87,29.98,29.76,21,4,24,0.27